createdAt,value
2022-11-04T00:02:06.984Z,10.40
2022-11-04T00:04:33.714Z,9.48
2022-11-04T00:07:00.515Z,9.98
2022-11-04T00:09:29.511Z,9.98
2022-11-04T00:12:15.348Z,9.23
2022-11-04T00:14:42.001Z,9.43
2022-11-04T00:17:24.497Z,9.77
2022-11-04T00:20:12.201Z,10.90
2022-11-04T00:22:59.528Z,9.70
2022-11-04T00:25:45.178Z,9.57
2022-11-04T00:28:38.501Z,9.95
2022-11-04T00:31:26.186Z,9.65
2022-11-04T00:33:54.668Z,10.07
2022-11-04T00:36:23.012Z,10.10
2022-11-04T00:38:49.677Z,10.15
2022-11-04T00:41:30.408Z,10.75
2022-11-04T00:43:58.322Z,10.40
2022-11-04T00:46:25.390Z,10.30
2022-11-04T00:48:51.994Z,10.82
2022-11-04T00:51:19.663Z,10.57
2022-11-04T00:53:46.434Z,10.20
2022-11-04T00:56:13.035Z,10.32
2022-11-04T00:58:39.913Z,10.93
2022-11-04T01:01:12.338Z,10.23
2022-11-04T01:03:39.501Z,10.57
2022-11-04T01:06:06.489Z,10.30
2022-11-04T01:08:33.151Z,10.48
2022-11-04T01:11:03.858Z,11.10
2022-11-04T01:13:31.353Z,10.80
2022-11-04T01:16:02.417Z,10.75
2022-11-04T01:18:29.246Z,10.13
2022-11-04T01:21:00.363Z,10.93
2022-11-04T01:23:27.439Z,10.70
2022-11-04T01:25:54.004Z,11.00
2022-11-04T01:28:20.624Z,11.68
2022-11-04T01:30:47.185Z,10.45
2022-11-04T01:33:13.920Z,10.93
2022-11-04T01:35:40.550Z,10.75
2022-11-04T01:38:07.487Z,10.77
2022-11-04T01:40:38.466Z,10.63
2022-11-04T01:43:14.953Z,11.40
2022-11-04T01:45:45.379Z,11.18
2022-11-04T01:48:32.143Z,11.00
2022-11-04T01:50:59.677Z,11.40
2022-11-04T01:53:37.546Z,11.38
2022-11-04T01:56:12.289Z,11.00
2022-11-04T01:58:51.737Z,11.63
2022-11-04T02:01:19.838Z,10.70
2022-11-04T02:03:52.337Z,11.20
2022-11-04T02:06:22.242Z,12.27
2022-11-04T02:08:49.531Z,12.13
2022-11-04T02:11:36.178Z,11.35
2022-11-04T02:14:03.064Z,11.13
2022-11-04T02:16:44.897Z,11.63
2022-11-04T02:19:35.366Z,11.63
2022-11-04T02:22:14.073Z,11.70
2022-11-04T02:25:19.503Z,11.52
2022-11-04T02:28:10.884Z,10.30
2022-11-04T02:31:10.639Z,12.00
2022-11-04T02:33:53.047Z,11.15
2022-11-04T02:36:28.529Z,11.50
2022-11-04T02:39:03.654Z,11.00
2022-11-04T02:41:46.027Z,11.50
2022-11-04T02:44:28.570Z,11.65
2022-11-04T02:47:07.264Z,11.20
2022-11-04T02:49:47.937Z,11.18
2022-11-04T02:52:51.409Z,11.60
2022-11-04T02:55:23.682Z,11.57
2022-11-04T02:57:55.193Z,12.98
2022-11-04T03:00:22.053Z,12.25
2022-11-04T03:02:54.288Z,12.45
2022-11-04T03:05:26.290Z,13.20
2022-11-04T03:07:56.349Z,12.27
2022-11-04T03:10:41.465Z,13.23
2022-11-04T03:13:19.041Z,13.45
2022-11-04T03:15:57.360Z,12.38
2022-11-04T03:18:42.509Z,12.48
2022-11-04T03:21:12.950Z,13.15
2022-11-04T03:23:40.367Z,12.82
2022-11-04T03:26:18.917Z,13.70
2022-11-04T03:29:16.329Z,12.80
2022-11-04T03:32:12.243Z,13.30
2022-11-04T03:34:39.214Z,13.25
2022-11-04T03:37:06.137Z,12.68
2022-11-04T03:39:33.235Z,13.48
2022-11-04T03:42:20.336Z,12.57
2022-11-04T03:44:55.940Z,13.32
2022-11-04T03:47:25.327Z,12.77
2022-11-04T03:50:00.025Z,14.40
2022-11-04T03:52:26.651Z,14.57
2022-11-04T03:54:53.852Z,15.15
2022-11-04T03:57:45.072Z,14.65
2022-11-04T04:00:15.263Z,14.63
2022-11-04T04:03:03.460Z,13.82
2022-11-04T04:05:32.023Z,14.13
2022-11-04T04:08:29.207Z,14.68
2022-11-04T04:11:17.534Z,14.75
2022-11-04T04:13:53.316Z,15.18
2022-11-04T04:16:42.448Z,14.80
2022-11-04T04:19:22.046Z,15.23
2022-11-04T04:21:56.767Z,15.00
2022-11-04T04:24:48.552Z,15.52
2022-11-04T04:27:31.516Z,15.07
2022-11-04T04:30:02.421Z,15.70
2022-11-04T04:32:31.628Z,14.93
2022-11-04T04:35:24.351Z,15.23
2022-11-04T04:37:53.647Z,15.85
2022-11-04T04:40:44.554Z,16.00
2022-11-04T04:43:34.763Z,15.82
2022-11-04T04:46:02.550Z,15.85
2022-11-04T04:48:29.121Z,15.23
2022-11-04T04:51:02.081Z,16.17
2022-11-04T04:53:29.060Z,15.85
2022-11-04T04:55:55.650Z,15.65
2022-11-04T04:58:22.240Z,16.42
2022-11-04T05:00:48.904Z,17.08
2022-11-04T05:03:15.894Z,17.00
2022-11-04T05:05:42.614Z,16.75
2022-11-04T05:08:09.453Z,17.55
2022-11-04T05:10:36.277Z,17.13
2022-11-04T05:13:41.551Z,17.15
2022-11-04T05:16:10.609Z,18.00
2022-11-04T05:18:37.243Z,19.23
2022-11-04T05:21:13.210Z,17.52
2022-11-04T05:23:40.022Z,18.38
2022-11-04T05:26:07.238Z,18.83
2022-11-04T05:28:33.892Z,19.33
2022-11-04T05:31:05.581Z,18.02
2022-11-04T05:33:32.862Z,16.90
2022-11-04T05:36:26.055Z,16.55
2022-11-04T05:38:55.735Z,15.98
2022-11-04T05:41:28.733Z,14.93
2022-11-04T05:43:57.379Z,13.75
2022-11-04T05:46:24.895Z,12.70
2022-11-04T05:48:51.904Z,13.73
2022-11-04T05:51:24.054Z,14.20
2022-11-04T05:53:50.902Z,13.40
2022-11-04T05:56:17.621Z,12.90
2022-11-04T05:58:44.229Z,14.40
2022-11-04T06:01:15.224Z,14.55
2022-11-04T06:03:42.091Z,14.75
2022-11-04T06:06:08.799Z,15.23
2022-11-04T06:08:35.391Z,14.93
2022-11-04T06:11:02.011Z,14.63
2022-11-04T06:13:28.610Z,17.25
2022-11-04T06:15:55.578Z,18.05
2022-11-04T06:18:22.270Z,19.05
2022-11-04T06:20:48.966Z,17.83
2022-11-04T06:23:15.726Z,17.42
2022-11-04T06:25:42.393Z,17.77
2022-11-04T06:28:09.435Z,16.17
2022-11-04T06:30:36.325Z,16.75
2022-11-04T06:33:02.978Z,17.95
2022-11-04T06:35:29.600Z,16.75
2022-11-04T06:37:56.297Z,17.25
2022-11-04T06:40:23.304Z,17.13
2022-11-04T06:42:50.659Z,16.95
2022-11-04T06:45:17.502Z,17.17
2022-11-04T06:47:44.594Z,15.98
2022-11-04T06:50:12.793Z,16.95
2022-11-04T06:52:42.504Z,17.42
2022-11-04T06:55:10.257Z,17.00
2022-11-04T06:57:36.791Z,17.02
2022-11-04T07:00:04.329Z,18.48
2022-11-04T07:02:30.971Z,17.50
2022-11-04T07:07:24.310Z,19.15
2022-11-04T07:09:51.023Z,18.77
2022-11-04T07:12:17.650Z,18.90
2022-11-04T07:14:44.634Z,16.58
2022-11-04T07:17:11.542Z,18.67
2022-11-04T07:19:38.120Z,19.52
2022-11-04T07:22:04.688Z,18.08
2022-11-04T07:24:31.269Z,18.33
2022-11-04T07:26:57.936Z,18.17
2022-11-04T07:29:25.886Z,18.92
2022-11-04T07:31:52.782Z,19.95
2022-11-04T07:34:20.519Z,19.30
2022-11-04T07:36:47.686Z,19.20
2022-11-04T07:39:14.419Z,19.73
2022-11-04T07:41:41.034Z,19.15
2022-11-04T07:44:10.748Z,20.70
2022-11-04T07:46:37.326Z,19.70
2022-11-04T07:49:04.466Z,20.55
2022-11-04T07:51:34.391Z,21.00
2022-11-04T07:54:01.777Z,22.13
2022-11-04T07:56:28.514Z,21.95
2022-11-04T07:58:55.458Z,21.23
2022-11-04T08:01:23.642Z,22.25
2022-11-04T08:03:51.399Z,22.48
2022-11-04T08:06:20.294Z,18.08
2022-11-04T08:08:48.234Z,20.65
2022-11-04T08:11:18.308Z,20.52
2022-11-04T08:13:46.457Z,21.95
2022-11-04T08:16:15.786Z,21.92
2022-11-04T08:18:43.529Z,21.42
2022-11-04T08:21:11.434Z,22.63
2022-11-04T08:23:38.748Z,21.17
2022-11-04T08:26:15.143Z,21.17
2022-11-04T08:28:41.956Z,20.60
2022-11-04T08:31:16.073Z,20.38
2022-11-04T08:33:43.254Z,22.27
2022-11-04T08:36:14.738Z,20.63
2022-11-04T08:38:41.435Z,20.75
2022-11-04T08:41:10.291Z,20.73
2022-11-04T08:43:36.950Z,20.70
2022-11-04T08:46:05.625Z,19.67
2022-11-04T08:48:33.757Z,20.70
2022-11-04T08:51:00.769Z,19.75
2022-11-04T08:53:28.058Z,19.27
2022-11-04T08:55:55.322Z,19.00
2022-11-04T08:58:23.518Z,19.63
2022-11-04T09:00:50.581Z,19.75
2022-11-04T09:03:17.804Z,19.20
2022-11-04T09:05:49.298Z,20.50
2022-11-04T09:11:02.020Z,19.15
2022-11-04T09:13:28.745Z,20.05
2022-11-04T09:15:55.457Z,19.30
2022-11-04T09:18:22.072Z,19.10
2022-11-04T09:20:48.610Z,18.63
2022-11-04T09:23:15.254Z,19.70
2022-11-04T09:25:42.005Z,19.05
2022-11-04T09:28:08.553Z,19.52
2022-11-04T09:30:35.365Z,20.05
2022-11-04T09:33:01.995Z,17.80
2022-11-04T09:35:28.758Z,17.23
2022-11-04T09:37:56.097Z,18.85
2022-11-04T09:40:25.613Z,18.77
2022-11-04T09:43:23.607Z,16.63
2022-11-04T09:45:53.185Z,18.33
2022-11-04T09:48:28.686Z,17.70
2022-11-04T09:50:59.217Z,19.75
2022-11-04T09:53:51.599Z,19.30
2022-11-04T09:56:23.498Z,19.13
2022-11-04T09:58:51.594Z,17.80
2022-11-04T10:01:18.660Z,18.92
2022-11-04T10:04:05.758Z,16.75
2022-11-04T10:07:14.585Z,17.02
2022-11-04T10:09:56.206Z,18.05
2022-11-04T10:13:07.457Z,17.90
2022-11-04T10:15:58.578Z,16.77
2022-11-04T10:18:27.830Z,17.52
2022-11-04T10:20:57.545Z,16.38
2022-11-04T10:23:34.861Z,17.67
2022-11-04T10:26:20.230Z,18.25
2022-11-04T10:28:52.731Z,17.17
2022-11-04T10:31:19.440Z,17.10
2022-11-04T10:33:52.506Z,18.13
2022-11-04T10:36:19.693Z,16.75
2022-11-04T10:38:48.777Z,15.93
2022-11-04T10:41:24.564Z,17.58
2022-11-04T10:43:54.697Z,15.00
2022-11-04T10:46:28.422Z,14.10
2022-11-04T10:49:32.402Z,14.30
2022-11-04T10:52:00.117Z,13.25
2022-11-04T10:54:28.054Z,12.23
2022-11-04T10:56:56.194Z,12.20
2022-11-04T10:59:51.558Z,12.27
2022-11-04T11:02:18.344Z,11.70
2022-11-04T11:04:47.289Z,11.35
2022-11-04T11:07:22.858Z,11.85
2022-11-04T11:09:54.382Z,11.23
2022-11-04T11:12:56.170Z,11.77
2022-11-04T11:15:30.872Z,11.85
2022-11-04T11:18:06.178Z,11.65
2022-11-04T11:20:35.868Z,10.38
2022-11-04T11:23:05.620Z,11.82
2022-11-04T11:25:34.177Z,11.23
2022-11-04T11:28:07.141Z,10.93
2022-11-04T11:30:42.124Z,10.63
2022-11-04T11:33:36.876Z,9.13
2022-11-04T11:36:04.691Z,11.50
2022-11-04T11:38:34.432Z,11.38
2022-11-04T11:41:24.307Z,10.95
2022-11-04T11:43:54.311Z,10.45
2022-11-04T11:46:23.352Z,11.73
2022-11-04T11:48:52.725Z,10.77
2022-11-04T11:51:40.424Z,10.55
2022-11-04T11:54:19.431Z,11.02
2022-11-04T12:02:43.066Z,9.57
2022-11-04T12:11:19.986Z,9.95
2022-11-04T12:13:55.483Z,9.05
2022-11-04T12:16:40.366Z,9.70
2022-11-04T12:19:17.649Z,8.75
2022-11-04T12:21:55.964Z,8.43
2022-11-04T12:24:43.779Z,8.68
2022-11-04T12:27:32.415Z,9.38
2022-11-04T12:30:12.606Z,7.47
2022-11-04T12:33:11.631Z,8.50
2022-11-04T12:36:12.359Z,9.50
2022-11-04T12:38:56.800Z,7.60
2022-11-04T12:41:52.787Z,7.97
2022-11-04T12:44:32.275Z,7.72
2022-11-04T12:47:10.644Z,7.32
2022-11-04T12:49:59.385Z,8.20
2022-11-04T12:52:59.547Z,7.90
2022-11-04T12:55:44.064Z,7.43
2022-11-04T12:58:27.912Z,8.63
2022-11-04T13:01:10.982Z,8.23
2022-11-04T13:04:17.372Z,9.10
2022-11-04T13:06:53.952Z,8.82
2022-11-04T13:09:36.834Z,9.00
2022-11-04T13:12:22.757Z,9.10
2022-11-04T13:14:57.227Z,8.90
2022-11-04T13:17:31.011Z,9.15
2022-11-04T13:20:02.899Z,10.02
2022-11-04T13:22:34.120Z,9.00
2022-11-04T13:25:05.652Z,8.60
2022-11-04T13:27:37.304Z,9.32
2022-11-04T13:30:10.636Z,8.60
2022-11-04T13:32:52.213Z,9.73
2022-11-04T13:35:25.697Z,10.05
2022-11-04T13:38:04.754Z,9.93
2022-11-04T13:40:43.645Z,10.27
2022-11-04T13:43:37.606Z,9.73
2022-11-04T13:46:13.122Z,9.88
2022-11-04T13:48:57.544Z,10.55
2022-11-04T13:51:46.369Z,10.15
2022-11-04T13:54:36.514Z,9.43
2022-11-04T13:57:26.400Z,9.98
2022-11-04T14:00:15.700Z,11.02
2022-11-04T14:02:47.437Z,10.10
2022-11-04T14:05:37.180Z,10.00
2022-11-04T14:08:03.732Z,10.23
2022-11-04T14:10:48.314Z,8.85
2022-11-04T14:13:35.126Z,10.43
2022-11-04T14:16:17.725Z,9.70
2022-11-04T14:18:46.544Z,9.93
2022-11-04T14:21:16.106Z,9.77
2022-11-04T14:23:46.258Z,10.55
2022-11-04T14:26:15.302Z,9.88
2022-11-04T14:28:45.289Z,10.00
2022-11-04T14:31:17.626Z,9.27
2022-11-04T14:33:54.161Z,9.80
2022-11-04T14:36:20.747Z,9.70
2022-11-04T14:39:05.785Z,10.93
2022-11-04T14:41:32.353Z,11.13
2022-11-04T14:44:07.870Z,11.07
2022-11-04T14:46:42.059Z,10.75
2022-11-04T14:49:27.563Z,10.60
2022-11-04T14:51:54.479Z,11.77
2022-11-04T14:54:25.606Z,10.65
2022-11-04T14:56:53.261Z,10.93
2022-11-04T14:59:24.336Z,11.50
2022-11-04T15:01:52.507Z,10.90
2022-11-04T15:04:26.836Z,10.60
2022-11-04T15:06:58.233Z,10.68
2022-11-04T15:09:32.720Z,11.05
2022-11-04T15:12:31.831Z,10.88
2022-11-04T15:14:59.920Z,11.05
2022-11-04T15:17:29.934Z,11.30
2022-11-04T15:20:00.411Z,10.60
2022-11-04T15:22:29.265Z,10.55
2022-11-04T15:25:03.531Z,11.40
2022-11-04T15:27:30.308Z,10.93
2022-11-04T15:30:00.450Z,12.90
2022-11-04T15:32:28.103Z,12.73
2022-11-04T15:34:55.629Z,11.45
2022-11-04T15:37:24.187Z,12.40
2022-11-04T15:39:53.138Z,12.90
2022-11-04T15:42:43.571Z,12.40
2022-11-04T15:45:21.988Z,13.70
2022-11-04T15:47:48.913Z,13.07
2022-11-04T15:50:22.529Z,13.13
2022-11-04T15:52:53.987Z,14.23
2022-11-04T15:55:24.688Z,15.60
2022-11-04T15:57:52.241Z,15.57
2022-11-04T16:00:25.042Z,15.75
2022-11-04T16:02:53.238Z,14.48
2022-11-04T16:05:19.880Z,15.27
2022-11-04T16:07:48.425Z,14.95
2022-11-04T16:10:27.622Z,15.77
2022-11-04T16:13:02.688Z,15.43
2022-11-04T16:16:09.329Z,13.75
2022-11-04T16:18:44.209Z,14.90
2022-11-04T16:21:26.219Z,14.02
2022-11-04T16:23:59.272Z,13.18
2022-11-04T16:26:38.903Z,12.80
2022-11-04T16:29:33.631Z,12.85
2022-11-04T16:32:26.863Z,13.25
2022-11-04T16:34:59.268Z,11.63
2022-11-04T16:37:27.364Z,12.23
2022-11-04T16:39:54.295Z,12.25
2022-11-04T16:42:22.258Z,12.07
2022-11-04T16:44:54.203Z,11.75
2022-11-04T16:47:21.132Z,13.00
2022-11-04T16:49:47.772Z,11.43
2022-11-04T16:52:23.065Z,12.07
2022-11-04T16:54:49.694Z,11.32
2022-11-04T16:57:16.538Z,13.70
2022-11-04T16:59:43.464Z,14.30
2022-11-04T17:02:28.790Z,13.30
2022-11-04T17:04:55.704Z,12.25
2022-11-04T17:07:35.281Z,12.70
2022-11-04T17:10:21.087Z,12.55
2022-11-04T17:12:48.110Z,13.30
2022-11-04T17:15:16.054Z,11.52
2022-11-04T17:17:43.492Z,12.23
2022-11-04T17:20:20.471Z,11.75
2022-11-04T17:22:47.849Z,11.93
2022-11-04T17:25:25.987Z,12.43
2022-11-04T17:27:52.789Z,12.93
2022-11-04T17:30:21.820Z,10.40
2022-11-04T17:32:49.341Z,10.98
2022-11-04T17:35:17.068Z,11.60
2022-11-04T17:37:44.135Z,11.55
2022-11-04T17:40:15.622Z,11.32
2022-11-04T17:43:00.501Z,11.65
2022-11-04T17:45:27.403Z,11.50
2022-11-04T17:47:54.085Z,12.43
2022-11-04T17:50:20.859Z,10.52
2022-11-04T17:52:49.233Z,11.48
2022-11-04T17:55:18.829Z,11.82
2022-11-04T17:57:47.456Z,12.32
2022-11-04T18:00:14.703Z,10.23
2022-11-04T18:02:41.782Z,10.00
2022-11-04T18:05:09.069Z,11.90
2022-11-04T18:07:35.824Z,11.20
2022-11-04T18:10:02.469Z,10.82
2022-11-04T18:12:37.701Z,12.23
2022-11-04T18:15:17.269Z,11.75
2022-11-04T18:17:45.125Z,12.30
2022-11-04T18:20:17.605Z,11.45
2022-11-04T18:22:44.810Z,11.88
2022-11-04T18:25:12.102Z,12.00
2022-11-04T18:27:38.665Z,12.95
2022-11-04T18:30:06.115Z,12.65
2022-11-04T18:32:33.205Z,13.68
2022-11-04T18:34:59.744Z,12.50
2022-11-04T18:37:26.545Z,12.88
2022-11-04T18:39:53.236Z,13.05
2022-11-04T18:42:19.979Z,12.68
2022-11-04T18:44:46.674Z,12.85
2022-11-04T18:47:14.625Z,12.95
2022-11-04T18:49:41.477Z,13.32
2022-11-04T18:52:08.330Z,12.27
2022-11-04T18:54:36.283Z,35.47
2022-11-04T18:57:04.107Z,13.68
2022-11-04T18:59:30.646Z,12.15
2022-11-04T19:01:57.253Z,12.93
2022-11-04T19:04:23.966Z,11.82
2022-11-04T19:06:50.481Z,12.45
2022-11-04T19:09:45.966Z,13.60
2022-11-04T19:12:36.806Z,18.63
2022-11-04T19:15:05.300Z,13.55
2022-11-04T19:17:31.908Z,13.60
2022-11-04T19:19:58.502Z,14.40
2022-11-04T19:22:25.280Z,13.45
2022-11-04T19:24:51.795Z,13.55
2022-11-04T19:27:19.601Z,14.68
2022-11-04T19:29:46.410Z,13.75
2022-11-04T19:32:14.267Z,14.38
2022-11-04T19:34:41.970Z,14.90
2022-11-04T19:37:08.601Z,14.05
2022-11-04T19:39:35.151Z,15.27
2022-11-04T19:42:20.549Z,14.60
2022-11-04T19:44:47.229Z,14.35
2022-11-04T19:47:13.882Z,14.50
2022-11-04T19:49:40.956Z,14.95
2022-11-04T19:52:08.942Z,15.15
2022-11-04T19:54:35.874Z,15.98
2022-11-04T19:57:02.544Z,17.70
2022-11-04T19:59:29.233Z,17.90
2022-11-04T20:01:55.916Z,18.33
2022-11-04T20:04:22.728Z,20.63
2022-11-04T20:06:49.253Z,20.65
2022-11-04T20:09:15.816Z,24.58
2022-11-04T20:12:01.195Z,25.27
2022-11-04T20:14:28.828Z,25.05
2022-11-04T20:16:55.595Z,26.60
2022-11-04T20:19:23.071Z,25.13
2022-11-04T20:21:50.776Z,25.27
2022-11-04T20:24:18.230Z,25.05
2022-11-04T20:26:46.766Z,24.13
2022-11-04T20:29:13.731Z,24.67
2022-11-04T20:31:41.292Z,22.92
2022-11-04T20:34:09.329Z,25.35
2022-11-04T20:36:37.635Z,25.48
2022-11-04T20:39:22.256Z,24.50
2022-11-04T20:41:48.814Z,23.52
2022-11-04T20:44:15.938Z,24.65
2022-11-04T20:46:43.674Z,24.60
2022-11-04T20:49:11.686Z,23.50
2022-11-04T20:51:42.392Z,23.63
2022-11-04T20:54:09.905Z,21.48
2022-11-04T20:56:38.277Z,22.83
2022-11-04T20:59:06.312Z,21.52
2022-11-04T21:01:36.026Z,21.05
2022-11-04T21:04:04.841Z,21.10
2022-11-04T21:06:33.145Z,20.77
2022-11-04T21:09:00.126Z,21.13
2022-11-04T21:11:31.790Z,21.95
2022-11-04T21:13:58.949Z,21.75
2022-11-04T21:16:25.710Z,21.20
2022-11-04T21:18:52.322Z,21.10
2022-11-04T21:21:18.959Z,22.52
2022-11-04T21:23:46.761Z,19.75
2022-11-04T21:26:23.282Z,22.05
2022-11-04T21:28:57.074Z,21.42
2022-11-04T21:31:25.347Z,21.65
2022-11-04T21:33:52.814Z,21.05
2022-11-04T21:36:19.695Z,21.85
2022-11-04T21:38:46.835Z,21.65
2022-11-04T21:41:16.087Z,21.20
2022-11-04T21:43:42.727Z,21.73
2022-11-04T21:46:14.832Z,21.15
2022-11-04T21:48:43.075Z,22.02
2022-11-04T21:51:18.928Z,23.77
2022-11-04T21:53:45.657Z,22.48
2022-11-04T21:56:15.973Z,21.70
2022-11-04T21:58:43.496Z,21.40
2022-11-04T22:01:12.374Z,22.02
2022-11-04T22:03:39.050Z,21.25
2022-11-04T22:06:11.586Z,23.48
2022-11-04T22:08:39.237Z,22.30
2022-11-04T22:11:12.208Z,24.60
2022-11-04T22:13:39.249Z,25.92
2022-11-04T22:16:13.504Z,25.20
2022-11-04T22:18:40.794Z,24.48
2022-11-04T22:21:11.350Z,25.55
2022-11-04T22:23:38.034Z,24.90
2022-11-04T22:26:07.813Z,24.95
2022-11-04T22:28:34.645Z,25.38
2022-11-04T22:31:06.412Z,24.77
2022-11-04T22:33:33.574Z,26.00
2022-11-04T22:36:00.240Z,25.48
2022-11-04T22:38:26.854Z,25.83
2022-11-04T22:40:55.126Z,25.50
2022-11-04T22:43:21.753Z,25.60
2022-11-04T22:45:48.326Z,25.75
2022-11-04T22:48:15.024Z,26.75
2022-11-04T22:50:41.567Z,26.95
2022-11-04T22:53:08.354Z,25.58
2022-11-04T22:55:36.411Z,24.65
2022-11-04T22:58:03.601Z,23.30
2022-11-04T23:00:30.784Z,24.77
2022-11-04T23:02:58.248Z,24.90
2022-11-04T23:05:27.918Z,23.00
2022-11-04T23:07:55.898Z,23.42
2022-11-04T23:10:48.775Z,25.05
2022-11-04T23:13:34.724Z,24.88
2022-11-04T23:16:20.227Z,25.55
2022-11-04T23:18:50.502Z,25.13
2022-11-04T23:21:40.892Z,23.95
2022-11-04T23:24:26.115Z,23.33
2022-11-04T23:26:52.951Z,22.92
2022-11-04T23:29:38.509Z,23.33
2022-11-04T23:32:05.193Z,23.52
2022-11-04T23:34:50.341Z,25.58
2022-11-04T23:37:17.026Z,23.40
2022-11-04T23:39:48.832Z,25.65
2022-11-04T23:42:18.666Z,25.20
2022-11-04T23:45:14.434Z,24.35
2022-11-04T23:48:04.374Z,23.58
2022-11-04T23:50:52.338Z,22.98
2022-11-04T23:53:39.939Z,23.20
2022-11-04T23:56:29.728Z,23.17
2022-11-04T23:59:15.093Z,22.88
